Weather at Lillo Airport

Public forecast

Using degrees Celsius for public forecast. Weather courtesy of forecast.io.

Closest aviation weather report (METAR) to Lillo Airport

Closest report is Getafe Air Base, 39.3 nm (72.8 km) NNW. Retrieved 2020/11/24 19:30 UTC (25 minutes ago):

LEGT 241930Z 25002KT CAVOK 08/04 Q1020

Closest aviation forecast (TAF) to Lillo Airport

Closest forecast is Getafe Air Base, 39.3 nm (72.8 km) NNW. Retrieved 2020/11/24 18:27 UTC (1 hour ago):

TAF LEGT 241700Z 2418/2518 VRB02KT CAVOK TX14/2515Z TN04/2502Z PROB30 TEMPO 2508/2514 OVC014